sensor_id;sensor_type;location;lat;lon;timestamp;temperature;humidity
68274;SHT30;55104;47.356;19.448;2023-08-01T00:01:25;15.38;79.66
68274;SHT30;55104;47.356;19.448;2023-08-01T00:04:27;15.35;79.70
68274;SHT30;55104;47.356;19.448;2023-08-01T00:07:29;15.44;79.74
68274;SHT30;55104;47.356;19.448;2023-08-01T00:10:31;15.48;79.64
68274;SHT30;55104;47.356;19.448;2023-08-01T00:13:33;15.41;79.73
68274;SHT30;55104;47.356;19.448;2023-08-01T00:16:36;15.41;79.73
68274;SHT30;55104;47.356;19.448;2023-08-01T00:19:38;15.39;80.09
68274;SHT30;55104;47.356;19.448;2023-08-01T00:22:40;15.35;80.08
68274;SHT30;55104;47.356;19.448;2023-08-01T00:25:43;15.32;80.28
68274;SHT30;55104;47.356;19.448;2023-08-01T00:28:45;15.27;80.33
68274;SHT30;55104;47.356;19.448;2023-08-01T00:31:48;15.32;80.33
68274;SHT30;55104;47.356;19.448;2023-08-01T00:34:51;15.31;80.40
68274;SHT30;55104;47.356;19.448;2023-08-01T00:37:53;15.27;80.49
68274;SHT30;55104;47.356;19.448;2023-08-01T00:40:56;15.30;80.99
68274;SHT30;55104;47.356;19.448;2023-08-01T00:43:58;15.28;80.98
68274;SHT30;55104;47.356;19.448;2023-08-01T00:47:00;15.27;80.87
68274;SHT30;55104;47.356;19.448;2023-08-01T00:50:03;15.25;80.83
68274;SHT30;55104;47.356;19.448;2023-08-01T00:53:05;15.23;81.07
68274;SHT30;55104;47.356;19.448;2023-08-01T00:56:08;15.16;81.25
68274;SHT30;55104;47.356;19.448;2023-08-01T00:59:12;15.17;81.09
68274;SHT30;55104;47.356;19.448;2023-08-01T01:02:15;15.11;81.16
68274;SHT30;55104;47.356;19.448;2023-08-01T01:05:17;15.12;81.05
68274;SHT30;55104;47.356;19.448;2023-08-01T01:08:21;15.17;80.76
68274;SHT30;55104;47.356;19.448;2023-08-01T01:11:23;15.11;80.79
68274;SHT30;55104;47.356;19.448;2023-08-01T01:14:27;15.11;80.90
68274;SHT30;55104;47.356;19.448;2023-08-01T01:17:29;15.11;81.18
68274;SHT30;55104;47.356;19.448;2023-08-01T01:20:35;15.04;81.18
68274;SHT30;55104;47.356;19.448;2023-08-01T01:23:39;15.06;81.16
68274;SHT30;55104;47.356;19.448;2023-08-01T01:26:42;15.01;81.49
68274;SHT30;55104;47.356;19.448;2023-08-01T01:29:47;14.91;81.78
68274;SHT30;55104;47.356;19.448;2023-08-01T01:32:50;14.91;82.08
68274;SHT30;55104;47.356;19.448;2023-08-01T01:35:54;14.94;82.20
68274;SHT30;55104;47.356;19.448;2023-08-01T01:38:56;14.93;82.17
68274;SHT30;55104;47.356;19.448;2023-08-01T01:41:58;14.87;81.96
68274;SHT30;55104;47.356;19.448;2023-08-01T01:45:00;14.86;82.00
68274;SHT30;55104;47.356;19.448;2023-08-01T01:48:02;14.84;82.26
68274;SHT30;55104;47.356;19.448;2023-08-01T01:51:04;14.84;82.36
68274;SHT30;55104;47.356;19.448;2023-08-01T01:54:06;14.83;82.36
68274;SHT30;55104;47.356;19.448;2023-08-01T01:57:08;14.83;82.68
68274;SHT30;55104;47.356;19.448;2023-08-01T02:00:12;14.76;82.62
68274;SHT30;55104;47.356;19.448;2023-08-01T02:03:14;14.72;82.89
68274;SHT30;55104;47.356;19.448;2023-08-01T02:06:16;14.72;82.86
68274;SHT30;55104;47.356;19.448;2023-08-01T02:09:18;14.76;82.84
68274;SHT30;55104;47.356;19.448;2023-08-01T02:12:21;14.68;82.69
68274;SHT30;55104;47.356;19.448;2023-08-01T02:15:23;14.66;82.88
68274;SHT30;55104;47.356;19.448;2023-08-01T02:18:25;14.68;82.64
68274;SHT30;55104;47.356;19.448;2023-08-01T02:21:27;14.63;82.88
68274;SHT30;55104;47.356;19.448;2023-08-01T02:24:29;14.65;82.89
68274;SHT30;55104;47.356;19.448;2023-08-01T02:27:32;14.63;82.89
68274;SHT30;55104;47.356;19.448;2023-08-01T02:30:35;14.65;82.86
68274;SHT30;55104;47.356;19.448;2023-08-01T02:33:37;14.63;83.25
68274;SHT30;55104;47.356;19.448;2023-08-01T02:36:39;14.62;83.17
68274;SHT30;55104;47.356;19.448;2023-08-01T02:39:42;14.62;82.89
68274;SHT30;55104;47.356;19.448;2023-08-01T02:42:44;14.62;83.28
68274;SHT30;55104;47.356;19.448;2023-08-01T02:45:46;14.56;83.25
68274;SHT30;55104;47.356;19.448;2023-08-01T02:48:49;14.58;83.32
68274;SHT30;55104;47.356;19.448;2023-08-01T02:51:51;14.51;83.18
68274;SHT30;55104;47.356;19.448;2023-08-01T02:54:53;14.53;83.38
68274;SHT30;55104;47.356;19.448;2023-08-01T02:57:55;14.52;83.43
68274;SHT30;55104;47.356;19.448;2023-08-01T03:00:57;14.51;83.42
68274;SHT30;55104;47.356;19.448;2023-08-01T03:03:59;14.52;83.64
68274;SHT30;55104;47.356;19.448;2023-08-01T03:07:01;14.48;83.53
68274;SHT30;55104;47.356;19.448;2023-08-01T03:10:03;14.45;83.62
68274;SHT30;55104;47.356;19.448;2023-08-01T03:13:06;14.46;83.64
68274;SHT30;55104;47.356;19.448;2023-08-01T03:16:08;14.48;83.72
68274;SHT30;55104;47.356;19.448;2023-08-01T03:19:12;14.49;83.72
68274;SHT30;55104;47.356;19.448;2023-08-01T03:22:15;14.49;83.58
68274;SHT30;55104;47.356;19.448;2023-08-01T03:25:18;14.51;83.66
68274;SHT30;55104;47.356;19.448;2023-08-01T03:28:21;14.55;83.65
68274;SHT30;55104;47.356;19.448;2023-08-01T03:31:23;14.53;83.61
68274;SHT30;55104;47.356;19.448;2023-08-01T03:34:27;14.58;83.64
68274;SHT30;55104;47.356;19.448;2023-08-01T03:37:30;14.59;83.67
68274;SHT30;55104;47.356;19.448;2023-08-01T03:40:32;14.62;83.97
68274;SHT30;55104;47.356;19.448;2023-08-01T03:43:34;14.63;83.74
68274;SHT30;55104;47.356;19.448;2023-08-01T03:46:36;14.68;83.47
68274;SHT30;55104;47.356;19.448;2023-08-01T03:49:38;14.70;83.61
68274;SHT30;55104;47.356;19.448;2023-08-01T03:52:40;14.80;83.38
68274;SHT30;55104;47.356;19.448;2023-08-01T03:55:47;14.87;83.19
68274;SHT30;55104;47.356;19.448;2023-08-01T03:58:49;14.93;83.21
68274;SHT30;55104;47.356;19.448;2023-08-01T04:01:52;15.00;83.12
68274;SHT30;55104;47.356;19.448;2023-08-01T04:04:54;15.08;83.04
68274;SHT30;55104;47.356;19.448;2023-08-01T04:07:56;15.20;82.72
68274;SHT30;55104;47.356;19.448;2023-08-01T04:10:58;15.31;82.68
68274;SHT30;55104;47.356;19.448;2023-08-01T04:14:01;15.39;82.73
68274;SHT30;55104;47.356;19.448;2023-08-01T04:17:03;15.49;82.48
68274;SHT30;55104;47.356;19.448;2023-08-01T04:20:06;15.69;82.07
68274;SHT30;55104;47.356;19.448;2023-08-01T04:23:08;15.89;81.77
68274;SHT30;55104;47.356;19.448;2023-08-01T04:26:10;16.01;81.47
68274;SHT30;55104;47.356;19.448;2023-08-01T04:29:12;16.22;81.07
68274;SHT30;55104;47.356;19.448;2023-08-01T04:32:17;16.41;80.52
68274;SHT30;55104;47.356;19.448;2023-08-01T04:35:19;16.62;80.04
68274;SHT30;55104;47.356;19.448;2023-08-01T04:38:21;16.73;79.72
68274;SHT30;55104;47.356;19.448;2023-08-01T04:41:23;16.96;79.29
68274;SHT30;55104;47.356;19.448;2023-08-01T04:44:26;17.11;78.93
68274;SHT30;55104;47.356;19.448;2023-08-01T04:47:28;17.24;78.75
68274;SHT30;55104;47.356;19.448;2023-08-01T04:50:30;17.34;78.98
68274;SHT30;55104;47.356;19.448;2023-08-01T04:53:32;17.48;79.04
68274;SHT30;55104;47.356;19.448;2023-08-01T04:56:34;17.55;79.10
68274;SHT30;55104;47.356;19.448;2023-08-01T04:59:36;17.69;78.99
68274;SHT30;55104;47.356;19.448;2023-08-01T05:02:38;17.85;78.84
68274;SHT30;55104;47.356;19.448;2023-08-01T05:05:40;18.01;79.15
68274;SHT30;55104;47.356;19.448;2023-08-01T05:08:43;18.16;78.81
68274;SHT30;55104;47.356;19.448;2023-08-01T05:11:45;18.34;78.15
68274;SHT30;55104;47.356;19.448;2023-08-01T05:14:47;18.55;78.20
68274;SHT30;55104;47.356;19.448;2023-08-01T05:17:49;18.66;77.38
68274;SHT30;55104;47.356;19.448;2023-08-01T05:20:52;18.99;77.29
68274;SHT30;55104;47.356;19.448;2023-08-01T05:23:54;19.24;76.79
68274;SHT30;55104;47.356;19.448;2023-08-01T05:26:56;19.48;76.13
68274;SHT30;55104;47.356;19.448;2023-08-01T05:29:58;19.57;75.52
68274;SHT30;55104;47.356;19.448;2023-08-01T05:33:00;19.61;75.90
68274;SHT30;55104;47.356;19.448;2023-08-01T05:36:02;19.76;75.12
68274;SHT30;55104;47.356;19.448;2023-08-01T05:39:04;19.95;75.27
68274;SHT30;55104;47.356;19.448;2023-08-01T05:42:06;20.02;74.70
68274;SHT30;55104;47.356;19.448;2023-08-01T05:45:10;20.16;74.46
68274;SHT30;55104;47.356;19.448;2023-08-01T05:48:13;20.33;74.90
68274;SHT30;55104;47.356;19.448;2023-08-01T05:51:17;20.61;74.10
68274;SHT30;55104;47.356;19.448;2023-08-01T05:54:19;20.92;73.16
68274;SHT30;55104;47.356;19.448;2023-08-01T05:57:21;21.31;71.60
68274;SHT30;55104;47.356;19.448;2023-08-01T06:00:23;21.89;69.68
68274;SHT30;55104;47.356;19.448;2023-08-01T06:03:26;22.60;68.55
68274;SHT30;55104;47.356;19.448;2023-08-01T06:06:28;23.40;65.67
68274;SHT30;55104;47.356;19.448;2023-08-01T06:09:30;24.39;62.42
68274;SHT30;55104;47.356;19.448;2023-08-01T06:12:32;25.15;61.21
68274;SHT30;55104;47.356;19.448;2023-08-01T06:15:34;25.80;58.66
68274;SHT30;55104;47.356;19.448;2023-08-01T06:18:36;25.90;57.89
68274;SHT30;55104;47.356;19.448;2023-08-01T06:21:38;25.79;57.75
68274;SHT30;55104;47.356;19.448;2023-08-01T06:24:40;25.21;59.04
68274;SHT30;55104;47.356;19.448;2023-08-01T06:27:42;24.50;61.74
68274;SHT30;55104;47.356;19.448;2023-08-01T06:30:45;24.26;63.32
68274;SHT30;55104;47.356;19.448;2023-08-01T06:33:47;24.05;64.76
68274;SHT30;55104;47.356;19.448;2023-08-01T06:36:49;23.97;64.72
68274;SHT30;55104;47.356;19.448;2023-08-01T06:39:51;23.89;63.97
68274;SHT30;55104;47.356;19.448;2023-08-01T06:42:53;23.78;65.95
68274;SHT30;55104;47.356;19.448;2023-08-01T06:45:55;23.88;64.44
68274;SHT30;55104;47.356;19.448;2023-08-01T06:48:58;23.98;64.71
68274;SHT30;55104;47.356;19.448;2023-08-01T06:52:00;24.11;64.00
68274;SHT30;55104;47.356;19.448;2023-08-01T06:55:02;24.19;65.12
68274;SHT30;55104;47.356;19.448;2023-08-01T06:58:05;24.43;63.08
68274;SHT30;55104;47.356;19.448;2023-08-01T07:01:07;24.60;63.18
68274;SHT30;55104;47.356;19.448;2023-08-01T07:04:10;24.71;63.27
68274;SHT30;55104;47.356;19.448;2023-08-01T07:07:15;24.83;63.06
68274;SHT30;55104;47.356;19.448;2023-08-01T07:10:17;25.10;61.58
68274;SHT30;55104;47.356;19.448;2023-08-01T07:13:19;25.19;62.61
68274;SHT30;55104;47.356;19.448;2023-08-01T07:16:21;25.38;60.72
68274;SHT30;55104;47.356;19.448;2023-08-01T07:19:24;25.46;61.47
68274;SHT30;55104;47.356;19.448;2023-08-01T07:22:26;25.71;60.28
68274;SHT30;55104;47.356;19.448;2023-08-01T07:25:28;25.84;59.32
68274;SHT30;55104;47.356;19.448;2023-08-01T07:28:30;25.90;61.93
68274;SHT30;55104;47.356;19.448;2023-08-01T07:31:33;25.94;58.12
68274;SHT30;55104;47.356;19.448;2023-08-01T07:34:35;25.98;60.11
68274;SHT30;55104;47.356;19.448;2023-08-01T07:37:38;26.02;59.20
68274;SHT30;55104;47.356;19.448;2023-08-01T07:40:40;26.32;59.21
68274;SHT30;55104;47.356;19.448;2023-08-01T07:43:42;26.56;57.94
68274;SHT30;55104;47.356;19.448;2023-08-01T07:46:44;26.59;58.19
68274;SHT30;55104;47.356;19.448;2023-08-01T07:49:46;26.63;56.39
68274;SHT30;55104;47.356;19.448;2023-08-01T07:52:48;26.72;56.63
68274;SHT30;55104;47.356;19.448;2023-08-01T07:55:52;26.79;58.05
68274;SHT30;55104;47.356;19.448;2023-08-01T07:58:54;27.01;56.21
68274;SHT30;55104;47.356;19.448;2023-08-01T08:01:56;27.25;56.07
68274;SHT30;55104;47.356;19.448;2023-08-01T08:04:58;27.46;55.69
68274;SHT30;55104;47.356;19.448;2023-08-01T08:08:00;27.41;54.44
68274;SHT30;55104;47.356;19.448;2023-08-01T08:11:03;27.48;55.02
68274;SHT30;55104;47.356;19.448;2023-08-01T08:14:05;27.51;54.18
68274;SHT30;55104;47.356;19.448;2023-08-01T08:17:07;27.53;53.93
68274;SHT30;55104;47.356;19.448;2023-08-01T08:20:09;27.65;54.59
68274;SHT30;55104;47.356;19.448;2023-08-01T08:23:12;27.58;54.20
68274;SHT30;55104;47.356;19.448;2023-08-01T08:26:17;27.94;53.90
68274;SHT30;55104;47.356;19.448;2023-08-01T08:29:19;27.86;54.02
68274;SHT30;55104;47.356;19.448;2023-08-01T08:32:21;27.85;52.73
68274;SHT30;55104;47.356;19.448;2023-08-01T08:35:23;28.17;54.28
68274;SHT30;55104;47.356;19.448;2023-08-01T08:38:26;28.25;52.34
68274;SHT30;55104;47.356;19.448;2023-08-01T08:41:32;28.53;51.99
68274;SHT30;55104;47.356;19.448;2023-08-01T08:44:43;28.51;50.89
68274;SHT30;55104;47.356;19.448;2023-08-01T08:47:49;28.59;52.14
68274;SHT30;55104;47.356;19.448;2023-08-01T08:51:00;27.83;52.10
68274;SHT30;55104;47.356;19.448;2023-08-01T08:54:02;27.98;52.15
68274;SHT30;55104;47.356;19.448;2023-08-01T08:57:05;28.24;52.35
68274;SHT30;55104;47.356;19.448;2023-08-01T09:00:09;28.29;50.92
68274;SHT30;55104;47.356;19.448;2023-08-01T09:03:11;28.55;50.54
68274;SHT30;55104;47.356;19.448;2023-08-01T09:06:16;28.56;51.32
68274;SHT30;55104;47.356;19.448;2023-08-01T09:09:18;28.40;49.86
68274;SHT30;55104;47.356;19.448;2023-08-01T09:12:21;28.58;50.45
68274;SHT30;55104;47.356;19.448;2023-08-01T09:15:25;28.78;50.41
68274;SHT30;55104;47.356;19.448;2023-08-01T09:18:29;28.86;50.70
68274;SHT30;55104;47.356;19.448;2023-08-01T09:21:32;28.42;50.43
68274;SHT30;55104;47.356;19.448;2023-08-01T09:24:37;28.76;50.28
68274;SHT30;55104;47.356;19.448;2023-08-01T09:27:40;29.18;49.50
68274;SHT30;55104;47.356;19.448;2023-08-01T09:30:50;29.27;49.30
68274;SHT30;55104;47.356;19.448;2023-08-01T09:33:53;29.52;48.09
68274;SHT30;55104;47.356;19.448;2023-08-01T09:36:59;29.66;48.27
68274;SHT30;55104;47.356;19.448;2023-08-01T09:40:03;29.89;47.94
68274;SHT30;55104;47.356;19.448;2023-08-01T09:43:06;30.16;46.94
68274;SHT30;55104;47.356;19.448;2023-08-01T09:46:11;30.23;45.85
68274;SHT30;55104;47.356;19.448;2023-08-01T09:49:13;30.24;45.30
68274;SHT30;55104;47.356;19.448;2023-08-01T09:52:26;30.51;43.85
68274;SHT30;55104;47.356;19.448;2023-08-01T09:55:31;30.26;44.74
68274;SHT30;55104;47.356;19.448;2023-08-01T09:58:34;30.16;45.75
68274;SHT30;55104;47.356;19.448;2023-08-01T10:01:38;30.20;45.21
68274;SHT30;55104;47.356;19.448;2023-08-01T10:04:41;30.54;44.31
68274;SHT30;55104;47.356;19.448;2023-08-01T10:07:45;30.67;43.53
68274;SHT30;55104;47.356;19.448;2023-08-01T10:10:50;30.65;43.98
68274;SHT30;55104;47.356;19.448;2023-08-01T10:13:53;30.74;43.65
68274;SHT30;55104;47.356;19.448;2023-08-01T10:16:56;30.68;43.67
68274;SHT30;55104;47.356;19.448;2023-08-01T10:19:59;30.43;43.85
68274;SHT30;55104;47.356;19.448;2023-08-01T10:23:02;30.86;43.10
68274;SHT30;55104;47.356;19.448;2023-08-01T10:26:06;31.17;43.33
68274;SHT30;55104;47.356;19.448;2023-08-01T10:29:09;31.07;41.33
68274;SHT30;55104;47.356;19.448;2023-08-01T10:32:11;30.90;43.97
68274;SHT30;55104;47.356;19.448;2023-08-01T10:35:13;31.12;42.11
68274;SHT30;55104;47.356;19.448;2023-08-01T10:38:16;31.40;42.68
68274;SHT30;55104;47.356;19.448;2023-08-01T10:44:30;31.22;42.68
68274;SHT30;55104;47.356;19.448;2023-08-01T10:47:35;31.36;42.67
68274;SHT30;55104;47.356;19.448;2023-08-01T10:50:38;31.20;41.65
68274;SHT30;55104;47.356;19.448;2023-08-01T10:53:40;31.30;40.73
68274;SHT30;55104;47.356;19.448;2023-08-01T10:56:48;31.48;39.23
68274;SHT30;55104;47.356;19.448;2023-08-01T10:59:51;31.64;38.95
68274;SHT30;55104;47.356;19.448;2023-08-01T11:02:53;31.81;39.42
68274;SHT30;55104;47.356;19.448;2023-08-01T11:05:58;32.04;38.59
68274;SHT30;55104;47.356;19.448;2023-08-01T11:09:00;32.16;39.76
68274;SHT30;55104;47.356;19.448;2023-08-01T11:12:03;32.53;38.22
68274;SHT30;55104;47.356;19.448;2023-08-01T11:15:07;32.95;40.78
68274;SHT30;55104;47.356;19.448;2023-08-01T11:18:11;32.68;37.23
68274;SHT30;55104;47.356;19.448;2023-08-01T11:21:24;32.61;37.69
68274;SHT30;55104;47.356;19.448;2023-08-01T11:24:27;32.71;37.64
68274;SHT30;55104;47.356;19.448;2023-08-01T11:27:29;32.89;39.15
68274;SHT30;55104;47.356;19.448;2023-08-01T11:30:32;32.92;37.87
68274;SHT30;55104;47.356;19.448;2023-08-01T11:33:34;32.12;37.86
68274;SHT30;55104;47.356;19.448;2023-08-01T11:36:36;31.84;37.73
68274;SHT30;55104;47.356;19.448;2023-08-01T11:39:41;31.70;38.36
68274;SHT30;55104;47.356;19.448;2023-08-01T11:42:43;31.75;38.58
68274;SHT30;55104;47.356;19.448;2023-08-01T11:45:51;31.85;39.20
68274;SHT30;55104;47.356;19.448;2023-08-01T11:48:54;31.64;37.69
68274;SHT30;55104;47.356;19.448;2023-08-01T11:51:56;31.61;39.30
68274;SHT30;55104;47.356;19.448;2023-08-01T11:54:58;31.57;38.05
68274;SHT30;55104;47.356;19.448;2023-08-01T11:58:00;31.37;37.87
68274;SHT30;55104;47.356;19.448;2023-08-01T12:04:06;31.12;39.02
68274;SHT30;55104;47.356;19.448;2023-08-01T12:07:13;30.96;38.90
68274;SHT30;55104;47.356;19.448;2023-08-01T12:10:17;30.96;38.83
68274;SHT30;55104;47.356;19.448;2023-08-01T12:13:22;30.79;39.53
68274;SHT30;55104;47.356;19.448;2023-08-01T12:16:25;30.71;40.48
68274;SHT30;55104;47.356;19.448;2023-08-01T12:19:27;30.68;40.14
68274;SHT30;55104;47.356;19.448;2023-08-01T12:22:30;30.75;41.28
68274;SHT30;55104;47.356;19.448;2023-08-01T12:25:32;30.86;39.61
68274;SHT30;55104;47.356;19.448;2023-08-01T12:28:34;30.60;40.26
68274;SHT30;55104;47.356;19.448;2023-08-01T12:31:37;30.76;40.63
68274;SHT30;55104;47.356;19.448;2023-08-01T12:34:39;30.85;40.55
68274;SHT30;55104;47.356;19.448;2023-08-01T12:37:41;30.69;40.02
68274;SHT30;55104;47.356;19.448;2023-08-01T12:40:43;30.52;40.84
68274;SHT30;55104;47.356;19.448;2023-08-01T12:43:45;30.64;40.57
68274;SHT30;55104;47.356;19.448;2023-08-01T12:46:48;30.62;40.06
68274;SHT30;55104;47.356;19.448;2023-08-01T12:49:50;30.47;40.22
68274;SHT30;55104;47.356;19.448;2023-08-01T12:52:52;30.43;41.03
68274;SHT30;55104;47.356;19.448;2023-08-01T12:55:54;30.54;40.68
68274;SHT30;55104;47.356;19.448;2023-08-01T12:58:56;30.45;41.31
68274;SHT30;55104;47.356;19.448;2023-08-01T13:01:58;30.34;40.07
68274;SHT30;55104;47.356;19.448;2023-08-01T13:05:00;30.31;40.86
68274;SHT30;55104;47.356;19.448;2023-08-01T13:08:03;30.26;40.66
68274;SHT30;55104;47.356;19.448;2023-08-01T13:11:13;30.16;41.06
68274;SHT30;55104;47.356;19.448;2023-08-01T13:14:15;30.68;40.85
68274;SHT30;55104;47.356;19.448;2023-08-01T13:17:17;30.86;40.98
68274;SHT30;55104;47.356;19.448;2023-08-01T13:20:23;31.13;40.43
68274;SHT30;55104;47.356;19.448;2023-08-01T13:23:26;31.29;39.59
68274;SHT30;55104;47.356;19.448;2023-08-01T13:26:28;31.30;39.39
68274;SHT30;55104;47.356;19.448;2023-08-01T13:29:33;31.04;39.45
68274;SHT30;55104;47.356;19.448;2023-08-01T13:32:35;30.99;40.40
68274;SHT30;55104;47.356;19.448;2023-08-01T13:35:38;30.86;40.12
68274;SHT30;55104;47.356;19.448;2023-08-01T13:38:40;30.65;40.06
68274;SHT30;55104;47.356;19.448;2023-08-01T13:41:42;30.37;40.62
68274;SHT30;55104;47.356;19.448;2023-08-01T13:44:44;30.38;41.89
68274;SHT30;55104;47.356;19.448;2023-08-01T13:47:46;30.20;41.56
68274;SHT30;55104;47.356;19.448;2023-08-01T13:50:48;30.10;41.18
68274;SHT30;55104;47.356;19.448;2023-08-01T13:53:50;30.17;41.88
68274;SHT30;55104;47.356;19.448;2023-08-01T13:56:52;30.10;43.27
68274;SHT30;55104;47.356;19.448;2023-08-01T13:59:58;30.12;42.66
68274;SHT30;55104;47.356;19.448;2023-08-01T14:03:15;30.43;43.90
68274;SHT30;55104;47.356;19.448;2023-08-01T14:06:18;30.90;41.16
68274;SHT30;55104;47.356;19.448;2023-08-01T14:09:20;31.10;41.76
68274;SHT30;55104;47.356;19.448;2023-08-01T14:12:22;31.27;40.38
68274;SHT30;55104;47.356;19.448;2023-08-01T14:15:26;31.26;38.52
68274;SHT30;55104;47.356;19.448;2023-08-01T14:18:29;31.12;38.78
68274;SHT30;55104;47.356;19.448;2023-08-01T14:21:31;30.69;39.35
68274;SHT30;55104;47.356;19.448;2023-08-01T14:24:33;30.64;39.68
68274;SHT30;55104;47.356;19.448;2023-08-01T14:27:36;30.60;41.05
68274;SHT30;55104;47.356;19.448;2023-08-01T14:30:40;30.54;38.44
68274;SHT30;55104;47.356;19.448;2023-08-01T14:33:42;30.52;39.31
68274;SHT30;55104;47.356;19.448;2023-08-01T14:36:44;30.47;39.85
68274;SHT30;55104;47.356;19.448;2023-08-01T14:39:46;30.52;38.99
68274;SHT30;55104;47.356;19.448;2023-08-01T14:42:49;30.43;38.31
68274;SHT30;55104;47.356;19.448;2023-08-01T14:45:51;30.40;38.69
68274;SHT30;55104;47.356;19.448;2023-08-01T14:48:53;30.14;38.53
68274;SHT30;55104;47.356;19.448;2023-08-01T14:51:55;30.05;40.08
68274;SHT30;55104;47.356;19.448;2023-08-01T14:54:57;29.90;40.18
68274;SHT30;55104;47.356;19.448;2023-08-01T14:57:59;29.89;40.69
68274;SHT30;55104;47.356;19.448;2023-08-01T15:01:01;29.88;42.05
68274;SHT30;55104;47.356;19.448;2023-08-01T15:04:04;30.00;42.35
68274;SHT30;55104;47.356;19.448;2023-08-01T15:07:06;29.86;41.74
68274;SHT30;55104;47.356;19.448;2023-08-01T15:10:09;29.75;43.48
68274;SHT30;55104;47.356;19.448;2023-08-01T15:13:11;29.71;43.61
68274;SHT30;55104;47.356;19.448;2023-08-01T15:16:13;29.61;43.35
68274;SHT30;55104;47.356;19.448;2023-08-01T15:19:16;29.59;43.58
68274;SHT30;55104;47.356;19.448;2023-08-01T15:22:19;29.50;43.73
68274;SHT30;55104;47.356;19.448;2023-08-01T15:25:21;29.57;44.16
68274;SHT30;55104;47.356;19.448;2023-08-01T15:28:24;29.63;43.65
68274;SHT30;55104;47.356;19.448;2023-08-01T15:31:27;29.75;44.07
68274;SHT30;55104;47.356;19.448;2023-08-01T15:34:29;29.89;43.15
68274;SHT30;55104;47.356;19.448;2023-08-01T15:37:31;29.93;42.31
68274;SHT30;55104;47.356;19.448;2023-08-01T15:40:33;29.92;42.47
68274;SHT30;55104;47.356;19.448;2023-08-01T15:43:40;29.72;42.80
68274;SHT30;55104;47.356;19.448;2023-08-01T15:46:42;29.52;41.72
68274;SHT30;55104;47.356;19.448;2023-08-01T15:49:44;29.25;41.75
68274;SHT30;55104;47.356;19.448;2023-08-01T15:52:47;29.14;41.90
68274;SHT30;55104;47.356;19.448;2023-08-01T15:56:03;29.03;42.59
68274;SHT30;55104;47.356;19.448;2023-08-01T15:59:06;29.07;43.38
68274;SHT30;55104;47.356;19.448;2023-08-01T16:02:08;29.02;43.69
68274;SHT30;55104;47.356;19.448;2023-08-01T16:05:10;28.99;42.89
68274;SHT30;55104;47.356;19.448;2023-08-01T16:08:12;28.99;43.50
68274;SHT30;55104;47.356;19.448;2023-08-01T16:11:17;28.89;44.45
68274;SHT30;55104;47.356;19.448;2023-08-01T16:14:19;28.93;44.04
68274;SHT30;55104;47.356;19.448;2023-08-01T16:17:36;28.78;44.30
68274;SHT30;55104;47.356;19.448;2023-08-01T16:20:38;28.66;44.39
68274;SHT30;55104;47.356;19.448;2023-08-01T16:23:40;28.69;44.73
68274;SHT30;55104;47.356;19.448;2023-08-01T16:26:42;28.51;45.38
68274;SHT30;55104;47.356;19.448;2023-08-01T16:29:45;28.52;45.13
68274;SHT30;55104;47.356;19.448;2023-08-01T16:32:47;28.52;44.55
68274;SHT30;55104;47.356;19.448;2023-08-01T16:35:49;28.34;45.18
68274;SHT30;55104;47.356;19.448;2023-08-01T16:38:52;28.25;45.17
68274;SHT30;55104;47.356;19.448;2023-08-01T16:41:54;28.17;46.06
68274;SHT30;55104;47.356;19.448;2023-08-01T16:44:59;28.13;46.60
68274;SHT30;55104;47.356;19.448;2023-08-01T16:48:01;28.07;46.53
68274;SHT30;55104;47.356;19.448;2023-08-01T16:51:04;27.32;50.41
68274;SHT30;55104;47.356;19.448;2023-08-01T16:54:06;25.63;55.50
68274;SHT30;55104;47.356;19.448;2023-08-01T16:57:08;24.64;59.08
68274;SHT30;55104;47.356;19.448;2023-08-01T17:00:11;24.09;60.82
68274;SHT30;55104;47.356;19.448;2023-08-01T17:03:14;23.54;62.56
68274;SHT30;55104;47.356;19.448;2023-08-01T17:06:16;23.23;63.49
68274;SHT30;55104;47.356;19.448;2023-08-01T17:09:18;22.84;64.92
68274;SHT30;55104;47.356;19.448;2023-08-01T17:12:20;22.88;64.61
68274;SHT30;55104;47.356;19.448;2023-08-01T17:15:23;22.63;65.14
68274;SHT30;55104;47.356;19.448;2023-08-01T17:18:26;22.64;65.22
68274;SHT30;55104;47.356;19.448;2023-08-01T17:21:28;22.64;65.15
68274;SHT30;55104;47.356;19.448;2023-08-01T17:24:30;22.60;64.90
68274;SHT30;55104;47.356;19.448;2023-08-01T17:27:32;22.37;65.22
68274;SHT30;55104;47.356;19.448;2023-08-01T17:30:37;22.14;65.35
68274;SHT30;55104;47.356;19.448;2023-08-01T17:33:41;21.98;66.15
68274;SHT30;55104;47.356;19.448;2023-08-01T17:36:43;21.99;65.34
68274;SHT30;55104;47.356;19.448;2023-08-01T17:39:45;21.57;66.83
68274;SHT30;55104;47.356;19.448;2023-08-01T17:42:48;21.50;67.41
68274;SHT30;55104;47.356;19.448;2023-08-01T17:45:53;21.37;67.63
68274;SHT30;55104;47.356;19.448;2023-08-01T17:48:55;21.30;68.27
68274;SHT30;55104;47.356;19.448;2023-08-01T17:51:57;21.20;68.72
68274;SHT30;55104;47.356;19.448;2023-08-01T17:55:00;21.19;69.03
68274;SHT30;55104;47.356;19.448;2023-08-01T17:58:02;21.23;69.09
68274;SHT30;55104;47.356;19.448;2023-08-01T18:01:06;21.18;69.58
68274;SHT30;55104;47.356;19.448;2023-08-01T18:04:08;21.22;69.85
68274;SHT30;55104;47.356;19.448;2023-08-01T18:07:11;21.00;70.68
68274;SHT30;55104;47.356;19.448;2023-08-01T18:10:13;20.93;71.07
68274;SHT30;55104;47.356;19.448;2023-08-01T18:13:15;20.81;71.74
68274;SHT30;55104;47.356;19.448;2023-08-01T18:16:22;20.74;71.98
68274;SHT30;55104;47.356;19.448;2023-08-01T18:19:24;20.58;72.91
68274;SHT30;55104;47.356;19.448;2023-08-01T18:22:28;20.41;73.63
68274;SHT30;55104;47.356;19.448;2023-08-01T18:25:33;20.38;74.50
68274;SHT30;55104;47.356;19.448;2023-08-01T18:28:35;20.26;74.45
68274;SHT30;55104;47.356;19.448;2023-08-01T18:31:38;20.20;76.01
68274;SHT30;55104;47.356;19.448;2023-08-01T18:34:40;20.10;76.27
68274;SHT30;55104;47.356;19.448;2023-08-01T18:37:42;19.95;77.32
68274;SHT30;55104;47.356;19.448;2023-08-01T18:40:45;19.92;78.50
68274;SHT30;55104;47.356;19.448;2023-08-01T18:43:47;19.74;79.53
68274;SHT30;55104;47.356;19.448;2023-08-01T18:46:52;19.55;80.78
68274;SHT30;55104;47.356;19.448;2023-08-01T18:49:54;19.44;81.74
68274;SHT30;55104;47.356;19.448;2023-08-01T18:52:56;19.46;81.88
68274;SHT30;55104;47.356;19.448;2023-08-01T18:56:18;19.38;82.83
68274;SHT30;55104;47.356;19.448;2023-08-01T18:59:21;19.11;84.08
68274;SHT30;55104;47.356;19.448;2023-08-01T19:02:24;18.99;84.50